sensor_id;sensor_type;location;lat;lon;timestamp;P1;durP1;ratioP1;P2;durP2;ratioP2
11247;SDS011;5681;53.316;13.950;2023-12-22T00:01:06;32.43;;;5.60;;
11247;SDS011;5681;53.316;13.950;2023-12-22T00:03:32;23.30;;;5.10;;
11247;SDS011;5681;53.316;13.950;2023-12-22T00:05:58;23.67;;;4.90;;
11247;SDS011;5681;53.316;13.950;2023-12-22T00:08:26;28.43;;;4.90;;
11247;SDS011;5681;53.316;13.950;2023-12-22T00:10:52;27.40;;;5.57;;
11247;SDS011;5681;53.316;13.950;2023-12-22T00:13:19;26.03;;;5.27;;
11247;SDS011;5681;53.316;13.950;2023-12-22T00:15:45;25.47;;;5.47;;
11247;SDS011;5681;53.316;13.950;2023-12-22T00:18:12;32.40;;;5.60;;
11247;SDS011;5681;53.316;13.950;2023-12-22T00:20:38;27.83;;;4.87;;
11247;SDS011;5681;53.316;13.950;2023-12-22T00:23:04;28.97;;;6.03;;
11247;SDS011;5681;53.316;13.950;2023-12-22T00:25:32;23.77;;;4.83;;
11247;SDS011;5681;53.316;13.950;2023-12-22T00:27:58;25.40;;;5.30;;
11247;SDS011;5681;53.316;13.950;2023-12-22T00:30:24;25.03;;;6.30;;
11247;SDS011;5681;53.316;13.950;2023-12-22T00:32:51;26.87;;;4.80;;
11247;SDS011;5681;53.316;13.950;2023-12-22T00:35:17;27.13;;;5.07;;
11247;SDS011;5681;53.316;13.950;2023-12-22T00:37:46;28.80;;;5.07;;
11247;SDS011;5681;53.316;13.950;2023-12-22T00:40:12;20.70;;;5.07;;
11247;SDS011;5681;53.316;13.950;2023-12-22T00:42:40;25.27;;;5.07;;
11247;SDS011;5681;53.316;13.950;2023-12-22T00:45:06;22.80;;;4.33;;
11247;SDS011;5681;53.316;13.950;2023-12-22T00:47:33;23.03;;;4.70;;
11247;SDS011;5681;53.316;13.950;2023-12-22T00:50:00;25.60;;;4.67;;
11247;SDS011;5681;53.316;13.950;2023-12-22T00:52:27;22.20;;;4.50;;
11247;SDS011;5681;53.316;13.950;2023-12-22T00:54:53;32.40;;;5.10;;
11247;SDS011;5681;53.316;13.950;2023-12-22T00:57:20;22.07;;;4.87;;
11247;SDS011;5681;53.316;13.950;2023-12-22T00:59:47;26.10;;;4.77;;
11247;SDS011;5681;53.316;13.950;2023-12-22T01:02:14;30.93;;;4.57;;
11247;SDS011;5681;53.316;13.950;2023-12-22T01:04:40;23.73;;;4.53;;
11247;SDS011;5681;53.316;13.950;2023-12-22T01:07:07;19.60;;;4.00;;
11247;SDS011;5681;53.316;13.950;2023-12-22T01:09:33;24.70;;;4.87;;
11247;SDS011;5681;53.316;13.950;2023-12-22T01:11:59;26.90;;;4.53;;
11247;SDS011;5681;53.316;13.950;2023-12-22T01:14:27;22.33;;;4.70;;
11247;SDS011;5681;53.316;13.950;2023-12-22T01:16:55;22.20;;;4.30;;
11247;SDS011;5681;53.316;13.950;2023-12-22T01:19:24;24.43;;;4.10;;
11247;SDS011;5681;53.316;13.950;2023-12-22T01:21:50;18.87;;;3.97;;
11247;SDS011;5681;53.316;13.950;2023-12-22T01:24:18;23.60;;;3.87;;
11247;SDS011;5681;53.316;13.950;2023-12-22T01:26:44;19.97;;;3.87;;
11247;SDS011;5681;53.316;13.950;2023-12-22T01:29:11;20.33;;;3.63;;
11247;SDS011;5681;53.316;13.950;2023-12-22T01:31:37;22.70;;;4.47;;
11247;SDS011;5681;53.316;13.950;2023-12-22T01:34:05;27.50;;;4.37;;
11247;SDS011;5681;53.316;13.950;2023-12-22T01:36:31;19.97;;;3.80;;
11247;SDS011;5681;53.316;13.950;2023-12-22T01:38:57;26.23;;;4.23;;
11247;SDS011;5681;53.316;13.950;2023-12-22T01:41:24;17.27;;;4.33;;
11247;SDS011;5681;53.316;13.950;2023-12-22T01:43:50;31.83;;;4.33;;
11247;SDS011;5681;53.316;13.950;2023-12-22T01:46:19;23.00;;;4.10;;
11247;SDS011;5681;53.316;13.950;2023-12-22T01:48:46;22.77;;;4.37;;
11247;SDS011;5681;53.316;13.950;2023-12-22T01:51:14;22.17;;;3.90;;
11247;SDS011;5681;53.316;13.950;2023-12-22T01:53:40;15.07;;;3.63;;
11247;SDS011;5681;53.316;13.950;2023-12-22T01:56:06;19.63;;;3.73;;
11247;SDS011;5681;53.316;13.950;2023-12-22T01:58:34;18.77;;;4.00;;
11247;SDS011;5681;53.316;13.950;2023-12-22T02:01:01;16.37;;;4.03;;
11247;SDS011;5681;53.316;13.950;2023-12-22T02:03:27;13.97;;;3.10;;
11247;SDS011;5681;53.316;13.950;2023-12-22T02:05:54;13.50;;;2.60;;
11247;SDS011;5681;53.316;13.950;2023-12-22T02:08:21;16.37;;;3.70;;
11247;SDS011;5681;53.316;13.950;2023-12-22T02:10:48;20.13;;;3.67;;
11247;SDS011;5681;53.316;13.950;2023-12-22T02:13:15;14.27;;;3.03;;
11247;SDS011;5681;53.316;13.950;2023-12-22T02:15:41;20.77;;;3.33;;
11247;SDS011;5681;53.316;13.950;2023-12-22T02:18:09;15.13;;;3.40;;
11247;SDS011;5681;53.316;13.950;2023-12-22T02:20:37;14.27;;;3.07;;
11247;SDS011;5681;53.316;13.950;2023-12-22T02:23:05;17.90;;;3.27;;
11247;SDS011;5681;53.316;13.950;2023-12-22T02:25:31;10.37;;;2.73;;
11247;SDS011;5681;53.316;13.950;2023-12-22T02:27:58;11.63;;;2.50;;
11247;SDS011;5681;53.316;13.950;2023-12-22T02:30:30;15.60;;;2.83;;
11247;SDS011;5681;53.316;13.950;2023-12-22T02:32:59;14.03;;;3.40;;
11247;SDS011;5681;53.316;13.950;2023-12-22T02:35:28;14.83;;;2.67;;
11247;SDS011;5681;53.316;13.950;2023-12-22T02:37:54;13.40;;;3.03;;
11247;SDS011;5681;53.316;13.950;2023-12-22T02:40:24;16.33;;;3.33;;
11247;SDS011;5681;53.316;13.950;2023-12-22T02:42:51;15.17;;;3.30;;
11247;SDS011;5681;53.316;13.950;2023-12-22T02:45:18;12.20;;;2.97;;
11247;SDS011;5681;53.316;13.950;2023-12-22T02:47:45;16.07;;;3.07;;
11247;SDS011;5681;53.316;13.950;2023-12-22T02:50:12;15.13;;;2.90;;
11247;SDS011;5681;53.316;13.950;2023-12-22T02:52:39;15.87;;;3.50;;
11247;SDS011;5681;53.316;13.950;2023-12-22T02:55:06;17.63;;;3.97;;
11247;SDS011;5681;53.316;13.950;2023-12-22T02:57:34;12.30;;;3.03;;
11247;SDS011;5681;53.316;13.950;2023-12-22T03:00:01;20.00;;;3.27;;
11247;SDS011;5681;53.316;13.950;2023-12-22T03:02:27;22.67;;;3.80;;
11247;SDS011;5681;53.316;13.950;2023-12-22T03:04:53;14.03;;;3.10;;
11247;SDS011;5681;53.316;13.950;2023-12-22T03:07:20;12.93;;;2.83;;
11247;SDS011;5681;53.316;13.950;2023-12-22T03:09:46;15.17;;;3.30;;
11247;SDS011;5681;53.316;13.950;2023-12-22T03:12:12;14.17;;;2.70;;
11247;SDS011;5681;53.316;13.950;2023-12-22T03:14:40;19.67;;;3.53;;
11247;SDS011;5681;53.316;13.950;2023-12-22T03:17:08;16.33;;;2.93;;
11247;SDS011;5681;53.316;13.950;2023-12-22T03:19:35;16.83;;;3.33;;
11247;SDS011;5681;53.316;13.950;2023-12-22T03:22:02;17.97;;;3.20;;
11247;SDS011;5681;53.316;13.950;2023-12-22T03:24:28;12.93;;;2.83;;
11247;SDS011;5681;53.316;13.950;2023-12-22T03:26:55;16.90;;;3.37;;
11247;SDS011;5681;53.316;13.950;2023-12-22T03:29:21;19.53;;;3.80;;
11247;SDS011;5681;53.316;13.950;2023-12-22T03:31:49;16.83;;;3.37;;
11247;SDS011;5681;53.316;13.950;2023-12-22T03:34:15;19.00;;;3.47;;
11247;SDS011;5681;53.316;13.950;2023-12-22T03:36:41;16.77;;;3.60;;
11247;SDS011;5681;53.316;13.950;2023-12-22T03:39:08;13.20;;;3.10;;
11247;SDS011;5681;53.316;13.950;2023-12-22T03:41:34;13.23;;;3.27;;
11247;SDS011;5681;53.316;13.950;2023-12-22T03:44:01;20.53;;;4.20;;
11247;SDS011;5681;53.316;13.950;2023-12-22T03:46:27;19.37;;;3.93;;
11247;SDS011;5681;53.316;13.950;2023-12-22T03:48:55;16.10;;;3.40;;
11247;SDS011;5681;53.316;13.950;2023-12-22T03:51:21;16.77;;;3.80;;
11247;SDS011;5681;53.316;13.950;2023-12-22T03:53:48;17.00;;;3.20;;
11247;SDS011;5681;53.316;13.950;2023-12-22T03:56:14;15.10;;;3.23;;
11247;SDS011;5681;53.316;13.950;2023-12-22T03:58:41;16.40;;;3.83;;
11247;SDS011;5681;53.316;13.950;2023-12-22T04:01:07;12.60;;;3.20;;
11247;SDS011;5681;53.316;13.950;2023-12-22T04:03:33;13.70;;;3.30;;
11247;SDS011;5681;53.316;13.950;2023-12-22T04:06:02;13.17;;;3.13;;
11247;SDS011;5681;53.316;13.950;2023-12-22T04:08:28;18.33;;;3.13;;
11247;SDS011;5681;53.316;13.950;2023-12-22T04:10:55;17.83;;;3.50;;
11247;SDS011;5681;53.316;13.950;2023-12-22T04:13:21;15.13;;;3.10;;
11247;SDS011;5681;53.316;13.950;2023-12-22T04:15:48;12.80;;;2.87;;
11247;SDS011;5681;53.316;13.950;2023-12-22T04:18:14;13.57;;;3.10;;
11247;SDS011;5681;53.316;13.950;2023-12-22T04:20:40;15.33;;;3.37;;
11247;SDS011;5681;53.316;13.950;2023-12-22T04:23:08;13.63;;;2.80;;
11247;SDS011;5681;53.316;13.950;2023-12-22T04:25:33;12.57;;;3.00;;
11247;SDS011;5681;53.316;13.950;2023-12-22T04:28:00;20.73;;;2.97;;
11247;SDS011;5681;53.316;13.950;2023-12-22T04:30:26;15.33;;;2.93;;
11247;SDS011;5681;53.316;13.950;2023-12-22T04:32:52;15.10;;;3.23;;
11247;SDS011;5681;53.316;13.950;2023-12-22T04:35:19;17.57;;;3.57;;
11247;SDS011;5681;53.316;13.950;2023-12-22T04:37:45;17.00;;;3.80;;
11247;SDS011;5681;53.316;13.950;2023-12-22T04:40:13;12.93;;;3.30;;
11247;SDS011;5681;53.316;13.950;2023-12-22T04:42:39;13.90;;;3.50;;
11247;SDS011;5681;53.316;13.950;2023-12-22T04:45:06;19.23;;;3.80;;
11247;SDS011;5681;53.316;13.950;2023-12-22T04:47:32;18.60;;;4.17;;
11247;SDS011;5681;53.316;13.950;2023-12-22T04:49:59;22.13;;;4.27;;
11247;SDS011;5681;53.316;13.950;2023-12-22T04:52:25;24.47;;;4.03;;
11247;SDS011;5681;53.316;13.950;2023-12-22T04:54:51;19.07;;;4.00;;
11247;SDS011;5681;53.316;13.950;2023-12-22T04:57:19;19.37;;;3.70;;
11247;SDS011;5681;53.316;13.950;2023-12-22T04:59:47;20.27;;;3.50;;
11247;SDS011;5681;53.316;13.950;2023-12-22T05:02:13;17.27;;;3.73;;
11247;SDS011;5681;53.316;13.950;2023-12-22T05:04:39;17.13;;;3.50;;
11247;SDS011;5681;53.316;13.950;2023-12-22T05:07:06;16.87;;;3.07;;
11247;SDS011;5681;53.316;13.950;2023-12-22T05:09:32;20.40;;;3.90;;
11247;SDS011;5681;53.316;13.950;2023-12-22T05:11:59;18.33;;;3.80;;
11247;SDS011;5681;53.316;13.950;2023-12-22T05:14:26;20.10;;;3.20;;
11247;SDS011;5681;53.316;13.950;2023-12-22T05:16:53;16.47;;;2.97;;
11247;SDS011;5681;53.316;13.950;2023-12-22T05:19:20;14.57;;;3.47;;
11247;SDS011;5681;53.316;13.950;2023-12-22T05:21:46;16.53;;;4.40;;
11247;SDS011;5681;53.316;13.950;2023-12-22T05:24:14;13.43;;;2.70;;
11247;SDS011;5681;53.316;13.950;2023-12-22T05:26:40;8.77;;;2.17;;
11247;SDS011;5681;53.316;13.950;2023-12-22T05:29:08;6.93;;;1.90;;
11247;SDS011;5681;53.316;13.950;2023-12-22T05:31:36;10.53;;;2.10;;
11247;SDS011;5681;53.316;13.950;2023-12-22T05:34:02;7.33;;;1.83;;
11247;SDS011;5681;53.316;13.950;2023-12-22T05:36:28;4.37;;;1.43;;
11247;SDS011;5681;53.316;13.950;2023-12-22T05:38:55;8.27;;;1.50;;
11247;SDS011;5681;53.316;13.950;2023-12-22T05:41:21;8.23;;;2.10;;
11247;SDS011;5681;53.316;13.950;2023-12-22T05:43:47;10.27;;;1.97;;
11247;SDS011;5681;53.316;13.950;2023-12-22T05:46:14;9.70;;;2.13;;
11247;SDS011;5681;53.316;13.950;2023-12-22T05:48:41;7.23;;;1.90;;
11247;SDS011;5681;53.316;13.950;2023-12-22T05:51:08;10.20;;;2.17;;
11247;SDS011;5681;53.316;13.950;2023-12-22T05:53:38;10.20;;;2.00;;
11247;SDS011;5681;53.316;13.950;2023-12-22T05:56:05;14.53;;;2.20;;
11247;SDS011;5681;53.316;13.950;2023-12-22T05:58:32;11.30;;;2.47;;
11247;SDS011;5681;53.316;13.950;2023-12-22T06:00:58;17.10;;;2.40;;
11247;SDS011;5681;53.316;13.950;2023-12-22T06:03:25;10.27;;;2.50;;
11247;SDS011;5681;53.316;13.950;2023-12-22T06:05:53;16.83;;;2.57;;
11247;SDS011;5681;53.316;13.950;2023-12-22T06:08:19;11.43;;;2.00;;
11247;SDS011;5681;53.316;13.950;2023-12-22T06:10:46;11.53;;;2.40;;
11247;SDS011;5681;53.316;13.950;2023-12-22T06:13:12;9.93;;;2.33;;
11247;SDS011;5681;53.316;13.950;2023-12-22T06:15:39;12.10;;;2.20;;
11247;SDS011;5681;53.316;13.950;2023-12-22T06:18:05;9.37;;;2.07;;
11247;SDS011;5681;53.316;13.950;2023-12-22T06:20:32;8.70;;;2.47;;
11247;SDS011;5681;53.316;13.950;2023-12-22T06:22:59;10.60;;;2.23;;
11247;SDS011;5681;53.316;13.950;2023-12-22T06:25:26;7.73;;;1.90;;
11247;SDS011;5681;53.316;13.950;2023-12-22T06:27:52;8.57;;;1.90;;
11247;SDS011;5681;53.316;13.950;2023-12-22T06:30:18;9.30;;;2.07;;
11247;SDS011;5681;53.316;13.950;2023-12-22T06:32:45;7.37;;;2.33;;
11247;SDS011;5681;53.316;13.950;2023-12-22T06:35:11;8.37;;;1.97;;
11247;SDS011;5681;53.316;13.950;2023-12-22T06:37:37;7.13;;;2.10;;
11247;SDS011;5681;53.316;13.950;2023-12-22T06:40:06;8.93;;;2.10;;
11247;SDS011;5681;53.316;13.950;2023-12-22T06:42:33;12.00;;;1.93;;
11247;SDS011;5681;53.316;13.950;2023-12-22T06:44:59;10.27;;;2.20;;
11247;SDS011;5681;53.316;13.950;2023-12-22T06:47:25;12.23;;;2.60;;
11247;SDS011;5681;53.316;13.950;2023-12-22T06:49:52;11.73;;;2.47;;
11247;SDS011;5681;53.316;13.950;2023-12-22T06:52:19;11.43;;;2.60;;
11247;SDS011;5681;53.316;13.950;2023-12-22T06:54:45;16.73;;;2.83;;
11247;SDS011;5681;53.316;13.950;2023-12-22T06:57:12;13.30;;;2.20;;
11247;SDS011;5681;53.316;13.950;2023-12-22T06:59:39;13.67;;;2.13;;
11247;SDS011;5681;53.316;13.950;2023-12-22T07:02:05;12.13;;;2.30;;
11247;SDS011;5681;53.316;13.950;2023-12-22T07:04:32;16.27;;;2.50;;
11247;SDS011;5681;53.316;13.950;2023-12-22T07:06:58;17.60;;;2.70;;
11247;SDS011;5681;53.316;13.950;2023-12-22T07:09:31;9.87;;;2.30;;
11247;SDS011;5681;53.316;13.950;2023-12-22T07:11:57;15.07;;;3.00;;
11247;SDS011;5681;53.316;13.950;2023-12-22T07:14:25;14.93;;;2.20;;
11247;SDS011;5681;53.316;13.950;2023-12-22T07:16:52;12.30;;;2.47;;
11247;SDS011;5681;53.316;13.950;2023-12-22T07:19:18;14.50;;;2.80;;
11247;SDS011;5681;53.316;13.950;2023-12-22T07:21:45;17.40;;;2.47;;
11247;SDS011;5681;53.316;13.950;2023-12-22T07:24:11;18.10;;;2.60;;
11247;SDS011;5681;53.316;13.950;2023-12-22T07:26:37;18.03;;;2.57;;
11247;SDS011;5681;53.316;13.950;2023-12-22T07:29:04;14.53;;;2.37;;
11247;SDS011;5681;53.316;13.950;2023-12-22T07:31:31;16.43;;;2.57;;
11247;SDS011;5681;53.316;13.950;2023-12-22T07:33:58;22.10;;;3.00;;
11247;SDS011;5681;53.316;13.950;2023-12-22T07:36:24;14.97;;;2.80;;
11247;SDS011;5681;53.316;13.950;2023-12-22T07:38:50;15.90;;;3.13;;
11247;SDS011;5681;53.316;13.950;2023-12-22T07:41:17;19.97;;;3.23;;
11247;SDS011;5681;53.316;13.950;2023-12-22T07:43:43;14.47;;;3.10;;
11247;SDS011;5681;53.316;13.950;2023-12-22T07:46:16;16.90;;;2.93;;
11247;SDS011;5681;53.316;13.950;2023-12-22T07:48:44;15.93;;;2.43;;
11247;SDS011;5681;53.316;13.950;2023-12-22T07:51:11;10.43;;;2.37;;
11247;SDS011;5681;53.316;13.950;2023-12-22T07:53:37;18.47;;;3.00;;
11247;SDS011;5681;53.316;13.950;2023-12-22T07:56:03;18.73;;;3.73;;
11247;SDS011;5681;53.316;13.950;2023-12-22T07:58:30;15.97;;;2.30;;
11247;SDS011;5681;53.316;13.950;2023-12-22T08:00:57;16.63;;;2.60;;
11247;SDS011;5681;53.316;13.950;2023-12-22T08:03:23;18.37;;;2.73;;
11247;SDS011;5681;53.316;13.950;2023-12-22T08:05:51;16.17;;;2.90;;
11247;SDS011;5681;53.316;13.950;2023-12-22T08:08:17;14.33;;;3.17;;
11247;SDS011;5681;53.316;13.950;2023-12-22T08:10:43;19.10;;;3.07;;
11247;SDS011;5681;53.316;13.950;2023-12-22T08:13:10;18.10;;;3.17;;
11247;SDS011;5681;53.316;13.950;2023-12-22T08:15:36;19.97;;;2.90;;
11247;SDS011;5681;53.316;13.950;2023-12-22T08:18:03;18.57;;;2.83;;
11247;SDS011;5681;53.316;13.950;2023-12-22T08:20:30;13.40;;;3.17;;
11247;SDS011;5681;53.316;13.950;2023-12-22T08:22:57;20.43;;;2.73;;
11247;SDS011;5681;53.316;13.950;2023-12-22T08:25:24;11.30;;;3.53;;
11247;SDS011;5681;53.316;13.950;2023-12-22T08:27:50;15.40;;;2.90;;
11247;SDS011;5681;53.316;13.950;2023-12-22T08:30:17;17.30;;;3.33;;
11247;SDS011;5681;53.316;13.950;2023-12-22T08:32:43;20.63;;;3.53;;
11247;SDS011;5681;53.316;13.950;2023-12-22T08:35:10;15.00;;;2.83;;
11247;SDS011;5681;53.316;13.950;2023-12-22T08:37:36;13.90;;;3.17;;
11247;SDS011;5681;53.316;13.950;2023-12-22T08:40:05;17.60;;;2.80;;
11247;SDS011;5681;53.316;13.950;2023-12-22T08:42:32;14.17;;;2.87;;
11247;SDS011;5681;53.316;13.950;2023-12-22T08:44:58;14.73;;;2.67;;
11247;SDS011;5681;53.316;13.950;2023-12-22T08:47:25;18.83;;;4.00;;
11247;SDS011;5681;53.316;13.950;2023-12-22T08:49:51;15.93;;;3.23;;
11247;SDS011;5681;53.316;13.950;2023-12-22T08:52:17;23.23;;;4.03;;
11247;SDS011;5681;53.316;13.950;2023-12-22T08:54:43;20.37;;;3.40;;
11247;SDS011;5681;53.316;13.950;2023-12-22T08:57:11;17.43;;;3.60;;
11247;SDS011;5681;53.316;13.950;2023-12-22T08:59:38;23.27;;;4.13;;
11247;SDS011;5681;53.316;13.950;2023-12-22T09:02:04;15.27;;;2.90;;
11247;SDS011;5681;53.316;13.950;2023-12-22T09:04:31;16.40;;;2.93;;
11247;SDS011;5681;53.316;13.950;2023-12-22T09:06:57;19.17;;;3.40;;
11247;SDS011;5681;53.316;13.950;2023-12-22T09:09:23;17.13;;;3.17;;
11247;SDS011;5681;53.316;13.950;2023-12-22T09:11:50;17.23;;;3.53;;
11247;SDS011;5681;53.316;13.950;2023-12-22T09:14:17;15.07;;;4.50;;
11247;SDS011;5681;53.316;13.950;2023-12-22T09:16:44;18.77;;;3.60;;
11247;SDS011;5681;53.316;13.950;2023-12-22T09:19:10;16.27;;;3.43;;
11247;SDS011;5681;53.316;13.950;2023-12-22T09:21:37;18.67;;;3.00;;
11247;SDS011;5681;53.316;13.950;2023-12-22T09:24:03;13.70;;;3.37;;
11247;SDS011;5681;53.316;13.950;2023-12-22T09:26:30;20.40;;;3.27;;
11247;SDS011;5681;53.316;13.950;2023-12-22T09:28:57;22.50;;;2.87;;
11247;SDS011;5681;53.316;13.950;2023-12-22T09:31:25;17.87;;;3.30;;
11247;SDS011;5681;53.316;13.950;2023-12-22T09:33:51;18.03;;;3.20;;
11247;SDS011;5681;53.316;13.950;2023-12-22T09:36:17;18.77;;;3.23;;
11247;SDS011;5681;53.316;13.950;2023-12-22T09:38:44;18.20;;;3.53;;
11247;SDS011;5681;53.316;13.950;2023-12-22T09:41:10;12.33;;;2.90;;
11247;SDS011;5681;53.316;13.950;2023-12-22T09:43:36;17.27;;;3.37;;
11247;SDS011;5681;53.316;13.950;2023-12-22T09:46:03;16.80;;;3.27;;
11247;SDS011;5681;53.316;13.950;2023-12-22T09:48:31;22.00;;;3.47;;
11247;SDS011;5681;53.316;13.950;2023-12-22T09:51:00;16.83;;;3.80;;
11247;SDS011;5681;53.316;13.950;2023-12-22T09:53:28;19.47;;;3.27;;
11247;SDS011;5681;53.316;13.950;2023-12-22T09:55:56;20.87;;;3.80;;
11247;SDS011;5681;53.316;13.950;2023-12-22T09:58:23;18.43;;;3.40;;
11247;SDS011;5681;53.316;13.950;2023-12-22T10:00:49;18.10;;;4.07;;
11247;SDS011;5681;53.316;13.950;2023-12-22T10:03:17;21.97;;;3.77;;
11247;SDS011;5681;53.316;13.950;2023-12-22T10:05:46;18.23;;;3.37;;
11247;SDS011;5681;53.316;13.950;2023-12-22T10:08:12;17.57;;;3.50;;
11247;SDS011;5681;53.316;13.950;2023-12-22T10:10:40;18.07;;;3.60;;
11247;SDS011;5681;53.316;13.950;2023-12-22T10:13:08;20.33;;;3.43;;
11247;SDS011;5681;53.316;13.950;2023-12-22T10:15:35;15.37;;;3.40;;
11247;SDS011;5681;53.316;13.950;2023-12-22T10:18:02;17.23;;;3.27;;
11247;SDS011;5681;53.316;13.950;2023-12-22T10:20:29;16.27;;;3.53;;
11247;SDS011;5681;53.316;13.950;2023-12-22T10:22:56;15.27;;;3.20;;
11247;SDS011;5681;53.316;13.950;2023-12-22T10:25:27;22.27;;;3.67;;
11247;SDS011;5681;53.316;13.950;2023-12-22T10:27:54;15.70;;;2.60;;
11247;SDS011;5681;53.316;13.950;2023-12-22T10:30:20;11.47;;;2.90;;
11247;SDS011;5681;53.316;13.950;2023-12-22T10:32:47;18.40;;;3.50;;
11247;SDS011;5681;53.316;13.950;2023-12-22T10:35:16;16.07;;;2.80;;
11247;SDS011;5681;53.316;13.950;2023-12-22T10:37:43;14.17;;;2.87;;
11247;SDS011;5681;53.316;13.950;2023-12-22T10:40:11;15.63;;;3.00;;
11247;SDS011;5681;53.316;13.950;2023-12-22T10:42:39;16.17;;;3.40;;
11247;SDS011;5681;53.316;13.950;2023-12-22T10:45:06;12.50;;;2.73;;
11247;SDS011;5681;53.316;13.950;2023-12-22T10:47:33;16.50;;;2.90;;
11247;SDS011;5681;53.316;13.950;2023-12-22T10:50:01;14.60;;;3.60;;
11247;SDS011;5681;53.316;13.950;2023-12-22T10:52:29;23.50;;;3.77;;
11247;SDS011;5681;53.316;13.950;2023-12-22T10:54:56;17.90;;;3.43;;
11247;SDS011;5681;53.316;13.950;2023-12-22T10:57:24;18.70;;;3.40;;
11247;SDS011;5681;53.316;13.950;2023-12-22T10:59:50;16.47;;;3.10;;
11247;SDS011;5681;53.316;13.950;2023-12-22T11:02:17;22.00;;;2.83;;
11247;SDS011;5681;53.316;13.950;2023-12-22T11:04:47;15.37;;;3.17;;
11247;SDS011;5681;53.316;13.950;2023-12-22T11:07:18;19.10;;;3.70;;
11247;SDS011;5681;53.316;13.950;2023-12-22T11:09:45;20.87;;;3.40;;
11247;SDS011;5681;53.316;13.950;2023-12-22T11:12:15;14.27;;;3.00;;
11247;SDS011;5681;53.316;13.950;2023-12-22T11:14:43;19.60;;;3.97;;
11247;SDS011;5681;53.316;13.950;2023-12-22T11:17:09;14.63;;;3.10;;
11247;SDS011;5681;53.316;13.950;2023-12-22T11:19:36;23.07;;;3.70;;
11247;SDS011;5681;53.316;13.950;2023-12-22T11:22:04;14.20;;;3.20;;
11247;SDS011;5681;53.316;13.950;2023-12-22T11:24:32;16.93;;;3.47;;
11247;SDS011;5681;53.316;13.950;2023-12-22T11:26:59;16.10;;;3.23;;
11247;SDS011;5681;53.316;13.950;2023-12-22T11:29:26;17.60;;;3.50;;
11247;SDS011;5681;53.316;13.950;2023-12-22T11:31:54;16.57;;;3.27;;
11247;SDS011;5681;53.316;13.950;2023-12-22T11:34:21;20.97;;;4.03;;
11247;SDS011;5681;53.316;13.950;2023-12-22T11:36:48;20.60;;;3.70;;
11247;SDS011;5681;53.316;13.950;2023-12-22T11:39:14;20.40;;;3.20;;
11247;SDS011;5681;53.316;13.950;2023-12-22T11:41:41;15.23;;;2.90;;
11247;SDS011;5681;53.316;13.950;2023-12-22T11:44:08;13.50;;;2.90;;
11247;SDS011;5681;53.316;13.950;2023-12-22T11:46:34;15.67;;;3.50;;
11247;SDS011;5681;53.316;13.950;2023-12-22T11:49:02;17.20;;;3.20;;
11247;SDS011;5681;53.316;13.950;2023-12-22T11:51:31;18.33;;;3.30;;
11247;SDS011;5681;53.316;13.950;2023-12-22T11:53:59;14.37;;;2.87;;
11247;SDS011;5681;53.316;13.950;2023-12-22T11:56:25;19.70;;;3.47;;
11247;SDS011;5681;53.316;13.950;2023-12-22T11:58:52;19.53;;;2.83;;
11247;SDS011;5681;53.316;13.950;2023-12-22T12:01:20;18.83;;;3.23;;
11247;SDS011;5681;53.316;13.950;2023-12-22T12:03:48;13.60;;;3.00;;
11247;SDS011;5681;53.316;13.950;2023-12-22T12:06:25;15.37;;;3.00;;
11247;SDS011;5681;53.316;13.950;2023-12-22T12:08:57;14.90;;;3.30;;
11247;SDS011;5681;53.316;13.950;2023-12-22T12:11:24;17.50;;;2.73;;
11247;SDS011;5681;53.316;13.950;2023-12-22T12:14:31;17.83;;;2.90;;
11247;SDS011;5681;53.316;13.950;2023-12-22T12:17:00;15.03;;;3.83;;
11247;SDS011;5681;53.316;13.950;2023-12-22T12:19:29;19.07;;;3.13;;
11247;SDS011;5681;53.316;13.950;2023-12-22T12:21:56;14.83;;;2.80;;
11247;SDS011;5681;53.316;13.950;2023-12-22T12:24:23;18.07;;;3.07;;
11247;SDS011;5681;53.316;13.950;2023-12-22T12:26:50;11.53;;;2.67;;
11247;SDS011;5681;53.316;13.950;2023-12-22T12:29:16;12.63;;;2.33;;
11247;SDS011;5681;53.316;13.950;2023-12-22T12:31:45;13.20;;;2.33;;
11247;SDS011;5681;53.316;13.950;2023-12-22T12:34:11;12.50;;;3.23;;
11247;SDS011;5681;53.316;13.950;2023-12-22T12:36:39;12.57;;;2.90;;
11247;SDS011;5681;53.316;13.950;2023-12-22T12:39:06;18.73;;;2.73;;
11247;SDS011;5681;53.316;13.950;2023-12-22T12:41:36;13.90;;;2.80;;
11247;SDS011;5681;53.316;13.950;2023-12-22T12:44:03;18.40;;;2.83;;
11247;SDS011;5681;53.316;13.950;2023-12-22T12:46:33;19.67;;;3.00;;
11247;SDS011;5681;53.316;13.950;2023-12-22T12:49:04;16.93;;;3.30;;
11247;SDS011;5681;53.316;13.950;2023-12-22T12:51:34;12.17;;;2.63;;
11247;SDS011;5681;53.316;13.950;2023-12-22T12:54:02;16.00;;;3.17;;
11247;SDS011;5681;53.316;13.950;2023-12-22T12:56:29;14.60;;;2.90;;
11247;SDS011;5681;53.316;13.950;2023-12-22T12:58:55;12.00;;;2.60;;
11247;SDS011;5681;53.316;13.950;2023-12-22T13:01:21;14.73;;;2.60;;
11247;SDS011;5681;53.316;13.950;2023-12-22T13:03:51;16.07;;;3.33;;
11247;SDS011;5681;53.316;13.950;2023-12-22T13:06:20;15.67;;;2.93;;
11247;SDS011;5681;53.316;13.950;2023-12-22T13:08:47;18.00;;;3.10;;
11247;SDS011;5681;53.316;13.950;2023-12-22T13:11:14;17.33;;;2.67;;
11247;SDS011;5681;53.316;13.950;2023-12-22T13:13:40;14.87;;;2.63;;
11247;SDS011;5681;53.316;13.950;2023-12-22T13:16:07;15.10;;;2.73;;
11247;SDS011;5681;53.316;13.950;2023-12-22T13:18:34;15.60;;;2.97;;
11247;SDS011;5681;53.316;13.950;2023-12-22T13:21:01;12.23;;;2.50;;
11247;SDS011;5681;53.316;13.950;2023-12-22T13:23:29;13.30;;;2.70;;
11247;SDS011;5681;53.316;13.950;2023-12-22T13:25:56;12.50;;;2.23;;
11247;SDS011;5681;53.316;13.950;2023-12-22T13:28:26;16.70;;;2.83;;
11247;SDS011;5681;53.316;13.950;2023-12-22T13:30:52;11.37;;;2.80;;
11247;SDS011;5681;53.316;13.950;2023-12-22T13:33:19;17.80;;;2.90;;
11247;SDS011;5681;53.316;13.950;2023-12-22T13:35:45;10.80;;;2.20;;
11247;SDS011;5681;53.316;13.950;2023-12-22T13:38:12;14.20;;;3.07;;
11247;SDS011;5681;53.316;13.950;2023-12-22T13:40:44;17.63;;;2.73;;
11247;SDS011;5681;53.316;13.950;2023-12-22T13:43:10;12.63;;;2.80;;
11247;SDS011;5681;53.316;13.950;2023-12-22T13:45:37;10.67;;;2.67;;
11247;SDS011;5681;53.316;13.950;2023-12-22T13:48:03;15.47;;;3.03;;
11247;SDS011;5681;53.316;13.950;2023-12-22T13:50:30;22.13;;;3.30;;
11247;SDS011;5681;53.316;13.950;2023-12-22T13:53:06;16.33;;;2.97;;
11247;SDS011;5681;53.316;13.950;2023-12-22T13:55:33;17.30;;;2.60;;
11247;SDS011;5681;53.316;13.950;2023-12-22T13:58:03;29.93;;;3.43;;
11247;SDS011;5681;53.316;13.950;2023-12-22T14:00:30;12.43;;;2.53;;
11247;SDS011;5681;53.316;13.950;2023-12-22T14:02:57;14.50;;;2.60;;
11247;SDS011;5681;53.316;13.950;2023-12-22T14:05:24;12.93;;;3.03;;
11247;SDS011;5681;53.316;13.950;2023-12-22T14:07:50;10.67;;;2.50;;
11247;SDS011;5681;53.316;13.950;2023-12-22T14:10:16;20.50;;;3.10;;
11247;SDS011;5681;53.316;13.950;2023-12-22T14:12:43;11.87;;;2.10;;
11247;SDS011;5681;53.316;13.950;2023-12-22T14:15:11;12.50;;;2.23;;
11247;SDS011;5681;53.316;13.950;2023-12-22T14:17:38;13.40;;;2.57;;
11247;SDS011;5681;53.316;13.950;2023-12-22T14:20:07;16.87;;;2.70;;
11247;SDS011;5681;53.316;13.950;2023-12-22T14:22:34;15.20;;;2.83;;
11247;SDS011;5681;53.316;13.950;2023-12-22T14:25:01;13.73;;;2.43;;
11247;SDS011;5681;53.316;13.950;2023-12-22T14:27:28;7.17;;;2.40;;
11247;SDS011;5681;53.316;13.950;2023-12-22T14:29:54;13.60;;;2.33;;
11247;SDS011;5681;53.316;13.950;2023-12-22T14:32:22;11.27;;;2.17;;
11247;SDS011;5681;53.316;13.950;2023-12-22T14:34:48;12.90;;;2.87;;